createdAt,value
2022-11-25T00:02:10.255Z,100668.38
2022-11-25T00:04:42.192Z,100659.02
2022-11-25T00:07:14.026Z,100664.21
2022-11-25T00:09:45.834Z,100666.48
2022-11-25T00:12:17.761Z,100665.62
2022-11-25T00:14:51.981Z,100662.98
2022-11-25T00:17:23.969Z,100666.68
2022-11-25T00:19:57.006Z,100662.67
2022-11-25T00:22:28.689Z,100661.51
2022-11-25T00:25:00.669Z,100661.26
2022-11-25T00:27:32.373Z,100657.36
2022-11-25T00:30:05.147Z,100660.05
2022-11-25T00:32:36.886Z,100661.67
2022-11-25T00:35:10.965Z,100660.98
2022-11-25T00:37:42.704Z,100657.46
2022-11-25T00:40:16.607Z,100662.66
2022-11-25T00:43:06.716Z,100665.55
2022-11-25T00:45:40.115Z,100670.23
2022-11-25T00:48:11.869Z,100679.64
2022-11-25T00:50:45.083Z,100682.92
2022-11-25T00:53:17.369Z,100694.48
2022-11-25T00:56:06.630Z,100691.91
2022-11-25T00:58:38.431Z,100686.25
2022-11-25T01:01:10.925Z,100685.88
2022-11-25T01:03:42.635Z,100682.02
2022-11-25T01:06:14.784Z,100670.23
2022-11-25T01:08:46.705Z,100686.59
2022-11-25T01:11:21.375Z,100682.89
2022-11-25T01:14:00.900Z,100689.29
2022-11-25T01:16:33.884Z,100691.09
2022-11-25T01:19:07.077Z,100695.17
2022-11-25T01:21:40.327Z,100697.07
2022-11-25T01:24:15.148Z,100690.48
2022-11-25T01:26:47.804Z,100696.05
2022-11-25T01:29:22.747Z,100694.71
2022-11-25T01:31:57.457Z,100696.64
2022-11-25T01:34:31.963Z,100702.13
2022-11-25T01:37:03.979Z,100699.76
2022-11-25T01:39:35.843Z,100703.40
2022-11-25T01:42:07.915Z,100698.31
2022-11-25T01:44:43.450Z,100695.35
2022-11-25T01:47:23.614Z,100692.95
2022-11-25T01:50:01.117Z,100696.13
2022-11-25T01:52:35.742Z,100693.17
2022-11-25T01:55:11.738Z,100689.38
2022-11-25T01:57:46.350Z,100686.55
2022-11-25T02:00:19.700Z,100679.31
2022-11-25T02:02:56.186Z,100694.83
2022-11-25T02:05:37.089Z,100696.84
2022-11-25T02:08:10.663Z,100692.52
2022-11-25T02:10:44.120Z,100681.06
2022-11-25T02:13:16.328Z,100691.36
2022-11-25T02:15:48.149Z,100691.65
2022-11-25T02:18:20.900Z,100694.13
2022-11-25T02:20:52.965Z,100698.66
2022-11-25T02:23:33.347Z,100701.03
2022-11-25T02:26:06.902Z,100697.95
2022-11-25T02:28:39.346Z,100704.66
2022-11-25T02:31:11.794Z,100700.89
2022-11-25T02:33:43.727Z,100702.73
2022-11-25T02:36:18.507Z,100698.15
2022-11-25T02:38:54.333Z,100683.77
2022-11-25T02:41:29.970Z,100686.92
2022-11-25T02:44:05.275Z,100687.40
2022-11-25T02:46:39.111Z,100691.83
2022-11-25T02:49:11.500Z,100686.02
2022-11-25T02:51:46.574Z,100699.90
2022-11-25T02:54:18.952Z,100709.08
2022-11-25T02:56:51.106Z,100699.43
2022-11-25T02:59:22.905Z,100707.52
2022-11-25T03:01:56.194Z,100704.10
2022-11-25T03:04:30.710Z,100704.88
2022-11-25T03:07:03.378Z,100704.29
2022-11-25T03:09:35.291Z,100711.70
2022-11-25T03:12:22.954Z,100710.23
2022-11-25T03:14:58.097Z,100712.58
2022-11-25T03:17:30.042Z,100709.94
2022-11-25T03:20:02.682Z,100710.61
2022-11-25T03:22:34.581Z,100707.48
2022-11-25T03:25:11.977Z,100712.45
2022-11-25T03:27:44.560Z,100699.67
2022-11-25T03:30:19.402Z,100701.80
2022-11-25T03:32:53.298Z,100713.23
2022-11-25T03:35:25.158Z,100708.41
2022-11-25T03:37:58.112Z,100706.51
2022-11-25T03:40:30.423Z,100712.14
2022-11-25T03:43:02.232Z,100712.06
2022-11-25T03:45:36.437Z,100711.47
2022-11-25T03:48:09.583Z,100706.92
2022-11-25T03:50:42.974Z,100714.02
2022-11-25T03:53:14.783Z,100710.05
2022-11-25T03:55:48.218Z,100705.52
2022-11-25T03:58:21.367Z,100710.61
2022-11-25T04:00:54.795Z,100708.83
2022-11-25T04:03:27.057Z,100712.21
2022-11-25T04:05:58.834Z,100714.05
2022-11-25T04:08:32.985Z,100728.65
2022-11-25T04:11:05.304Z,100732.83
2022-11-25T04:13:39.053Z,100730.14
2022-11-25T04:16:23.543Z,100735.02
2022-11-25T04:18:56.128Z,100741.15
2022-11-25T04:21:28.747Z,100749.45
2022-11-25T04:24:01.365Z,100748.30
2022-11-25T04:26:33.354Z,100748.11
2022-11-25T04:29:05.966Z,100749.60
2022-11-25T04:31:39.158Z,100744.55
2022-11-25T04:34:11.167Z,100744.95
2022-11-25T04:36:42.926Z,100743.52
2022-11-25T04:39:14.820Z,100745.23
2022-11-25T04:41:47.253Z,100744.33
2022-11-25T04:44:19.215Z,100737.82
2022-11-25T04:46:51.894Z,100741.50
2022-11-25T04:49:23.724Z,100738.44
2022-11-25T04:51:55.951Z,100738.64
2022-11-25T04:54:28.082Z,100734.15
2022-11-25T04:57:00.834Z,100732.65
2022-11-25T04:59:42.505Z,100719.52
2022-11-25T05:02:18.783Z,100712.98
2022-11-25T05:04:59.741Z,100729.52
2022-11-25T05:07:33.547Z,100737.34
2022-11-25T05:10:06.260Z,100737.12
2022-11-25T05:12:42.679Z,100738.90
2022-11-25T05:15:17.795Z,100736.31
2022-11-25T05:17:52.015Z,100739.04
2022-11-25T05:20:31.454Z,100735.43
2022-11-25T05:23:06.502Z,100741.30
2022-11-25T05:25:39.240Z,100742.66
2022-11-25T05:28:34.729Z,100744.19
2022-11-25T05:31:06.832Z,100746.60
2022-11-25T05:33:40.669Z,100750.80
2022-11-25T05:36:13.398Z,100757.02
2022-11-25T05:38:47.725Z,100753.69
2022-11-25T05:41:25.465Z,100758.00
2022-11-25T05:43:57.891Z,100754.44
2022-11-25T05:46:31.257Z,100737.80
2022-11-25T05:49:03.598Z,100747.20
2022-11-25T05:51:36.085Z,100748.60
2022-11-25T05:54:08.690Z,100754.25
2022-11-25T05:56:41.490Z,100756.19
2022-11-25T05:59:38.777Z,100743.60
2022-11-25T06:02:16.272Z,100752.74
2022-11-25T06:04:48.476Z,100756.52
2022-11-25T06:07:21.823Z,100757.17
2022-11-25T06:10:00.031Z,100762.90
2022-11-25T06:12:35.762Z,100762.73
2022-11-25T06:15:11.116Z,100766.39
2022-11-25T06:17:43.286Z,100764.55
2022-11-25T06:20:20.653Z,100768.96
2022-11-25T06:22:53.019Z,100767.63
2022-11-25T06:25:30.296Z,100774.38
2022-11-25T06:28:12.747Z,100776.14
2022-11-25T06:30:47.062Z,100774.75
2022-11-25T06:33:27.503Z,100776.62
2022-11-25T06:35:59.799Z,100772.92
2022-11-25T06:38:32.289Z,100784.04
2022-11-25T06:41:05.379Z,100785.77
2022-11-25T06:43:37.429Z,100793.47
2022-11-25T06:46:18.544Z,100793.81
2022-11-25T06:48:59.867Z,100795.59
2022-11-25T06:51:32.437Z,100798.08
2022-11-25T06:54:12.062Z,100799.30
2022-11-25T06:56:45.271Z,100798.85
2022-11-25T06:59:17.418Z,100806.11
2022-11-25T07:01:49.441Z,100805.40
2022-11-25T07:04:21.200Z,100807.16
2022-11-25T07:06:53.067Z,100800.38
2022-11-25T07:09:25.018Z,100801.30
2022-11-25T07:11:57.707Z,100799.23
2022-11-25T07:14:29.535Z,100801.33
2022-11-25T07:17:01.393Z,100811.90
2022-11-25T07:19:35.602Z,100822.86
2022-11-25T07:22:07.501Z,100828.65
2022-11-25T07:24:39.426Z,100830.42
2022-11-25T07:27:11.631Z,100831.42
2022-11-25T07:29:58.291Z,100833.48
2022-11-25T07:32:36.756Z,100836.17
2022-11-25T07:35:09.546Z,100837.73
2022-11-25T07:37:41.257Z,100830.06
2022-11-25T07:40:14.450Z,100836.30
2022-11-25T07:42:46.300Z,100833.95
2022-11-25T07:45:18.508Z,100835.45
2022-11-25T07:47:51.122Z,100836.04
2022-11-25T07:50:25.418Z,100836.44
2022-11-25T07:52:57.209Z,100832.95
2022-11-25T07:55:29.051Z,100830.48
2022-11-25T07:58:01.077Z,100831.78
2022-11-25T08:00:32.854Z,100832.24
2022-11-25T08:03:04.978Z,100825.88
2022-11-25T08:05:37.115Z,100817.30
2022-11-25T08:08:09.061Z,100829.17
2022-11-25T08:10:43.707Z,100831.90
2022-11-25T08:13:15.672Z,100833.48
2022-11-25T08:15:47.607Z,100835.83
2022-11-25T08:18:20.102Z,100837.48
2022-11-25T08:20:51.751Z,100845.70
2022-11-25T08:23:23.515Z,100846.77
2022-11-25T08:25:56.715Z,100847.02
2022-11-25T08:28:28.882Z,100849.65
2022-11-25T08:31:06.015Z,100833.67
2022-11-25T08:33:37.914Z,100850.16
2022-11-25T08:36:11.173Z,100864.27
2022-11-25T08:38:43.838Z,100860.15
2022-11-25T08:41:17.955Z,100846.16
2022-11-25T08:43:50.523Z,100854.69
2022-11-25T08:46:24.897Z,100862.90
2022-11-25T08:48:57.473Z,100854.45
2022-11-25T08:51:31.244Z,100845.02
2022-11-25T08:54:04.509Z,100857.86
2022-11-25T08:56:36.590Z,100858.72
2022-11-25T08:59:08.759Z,100847.76
2022-11-25T09:01:40.505Z,100861.73
2022-11-25T09:04:12.400Z,100850.75
2022-11-25T09:06:44.563Z,100867.48
2022-11-25T09:09:16.551Z,100867.16
2022-11-25T09:11:48.298Z,100868.63
2022-11-25T09:14:20.217Z,100874.58
2022-11-25T09:16:51.977Z,100880.81
2022-11-25T09:19:24.074Z,100877.92
2022-11-25T09:21:55.927Z,100874.91
2022-11-25T09:24:27.737Z,100873.39
2022-11-25T09:26:59.659Z,100867.02
2022-11-25T09:29:32.382Z,100862.80
2022-11-25T09:32:04.230Z,100864.71
2022-11-25T09:34:36.251Z,100862.88
2022-11-25T09:37:08.215Z,100864.38
2022-11-25T09:39:40.246Z,100861.96
2022-11-25T09:42:45.874Z,100865.38
2022-11-25T09:45:42.357Z,100870.76
2022-11-25T09:48:31.702Z,100868.86
2022-11-25T09:51:13.155Z,100867.29
2022-11-25T09:53:48.518Z,100866.34
2022-11-25T09:56:29.557Z,100863.77
2022-11-25T09:59:08.270Z,100866.13
2022-11-25T10:01:50.072Z,100866.33
2022-11-25T10:04:26.852Z,100862.42
2022-11-25T10:07:02.993Z,100870.71
2022-11-25T10:09:37.024Z,100869.05
2022-11-25T10:12:17.976Z,100862.38
2022-11-25T10:14:52.625Z,100874.58
2022-11-25T10:17:33.938Z,100875.73
2022-11-25T10:20:14.243Z,100877.27
2022-11-25T10:22:47.865Z,100879.45
2022-11-25T10:25:23.671Z,100873.52
2022-11-25T10:28:00.822Z,100875.23
2022-11-25T10:30:39.287Z,100875.25
2022-11-25T10:33:19.533Z,100877.20
2022-11-25T10:35:54.596Z,100875.33
2022-11-25T10:38:31.590Z,100858.02
2022-11-25T10:41:06.116Z,100861.38
2022-11-25T10:43:39.479Z,100877.59
2022-11-25T10:46:23.274Z,100876.12
2022-11-25T10:49:02.606Z,100874.27
2022-11-25T10:51:41.947Z,100875.99
2022-11-25T10:54:28.212Z,100873.96
2022-11-25T10:57:02.186Z,100879.45
2022-11-25T10:59:35.727Z,100882.17
2022-11-25T11:02:24.723Z,100880.61
2022-11-25T11:05:03.976Z,100876.55
2022-11-25T11:07:38.820Z,100876.29
2022-11-25T11:10:15.042Z,100875.86
2022-11-25T11:12:59.087Z,100876.85
2022-11-25T11:15:33.829Z,100876.08
2022-11-25T11:18:25.064Z,100877.40
2022-11-25T11:20:59.032Z,100865.60
2022-11-25T11:23:31.865Z,100879.47
2022-11-25T11:26:06.343Z,100880.59
2022-11-25T11:28:42.968Z,100878.43
2022-11-25T11:31:21.487Z,100878.97
2022-11-25T11:33:59.972Z,100878.23
2022-11-25T11:36:51.789Z,100879.64
2022-11-25T11:39:36.703Z,100884.00
2022-11-25T11:42:15.170Z,100882.26
2022-11-25T11:45:02.755Z,100873.21
2022-11-25T11:47:43.114Z,100881.35
2022-11-25T11:50:28.298Z,100881.20
2022-11-25T11:53:07.138Z,100887.78
2022-11-25T11:56:33.055Z,100872.48
2022-11-25T11:59:07.053Z,100881.82
2022-11-25T12:01:50.963Z,100879.05
2022-11-25T12:04:28.079Z,100879.39
2022-11-25T12:07:08.753Z,100875.66
2022-11-25T12:09:47.449Z,100873.71
2022-11-25T12:12:23.494Z,100876.37
2022-11-25T12:15:04.744Z,100878.55
2022-11-25T12:17:43.678Z,100876.52
2022-11-25T12:20:23.568Z,100880.02
2022-11-25T12:23:03.042Z,100867.27
2022-11-25T12:25:38.610Z,100879.85
2022-11-25T12:28:16.080Z,100876.83
2022-11-25T12:31:04.754Z,100876.34
2022-11-25T12:33:46.782Z,100880.89
2022-11-25T12:36:23.906Z,100873.88
2022-11-25T12:39:00.831Z,100873.67
2022-11-25T12:41:41.331Z,100868.73
2022-11-25T12:44:19.488Z,100874.71
2022-11-25T12:46:54.000Z,100870.76
2022-11-25T12:49:29.107Z,100873.59
2022-11-25T12:52:20.125Z,100877.55
2022-11-25T12:55:13.530Z,100875.22
2022-11-25T12:58:00.622Z,100875.14
2022-11-25T13:00:43.826Z,100873.77
2022-11-25T13:03:38.980Z,100874.83
2022-11-25T13:06:24.998Z,100866.62
2022-11-25T13:09:02.536Z,100877.60
2022-11-25T13:12:07.982Z,100882.15
2022-11-25T13:15:04.406Z,100885.21
2022-11-25T13:17:42.677Z,100890.56
2022-11-25T13:20:38.192Z,100888.20
2022-11-25T13:23:25.897Z,100894.89
2022-11-25T13:26:36.943Z,100900.04
2022-11-25T13:29:43.544Z,100903.36
2022-11-25T13:32:43.326Z,100903.34
2022-11-25T13:35:38.839Z,100905.25
2022-11-25T13:38:29.698Z,100905.96
2022-11-25T13:41:03.995Z,100902.47
2022-11-25T13:43:35.802Z,100904.27
2022-11-25T13:46:08.089Z,100903.52
2022-11-25T13:48:44.883Z,100897.25
2022-11-25T13:51:21.783Z,100892.71
2022-11-25T13:53:56.407Z,100891.60
2022-11-25T13:56:32.913Z,100899.52
2022-11-25T14:02:36.232Z,100902.20
2022-11-25T14:05:33.818Z,100906.16
2022-11-25T14:08:21.486Z,100904.88
2022-11-25T14:11:16.786Z,100910.92
2022-11-25T14:13:58.999Z,100915.54
2022-11-25T14:16:49.056Z,100918.66
2022-11-25T14:20:06.140Z,100919.69
2022-11-25T14:23:10.213Z,100916.33
2022-11-25T14:25:52.598Z,100919.14
2022-11-25T14:28:33.037Z,100927.08
2022-11-25T14:31:12.201Z,100924.04
2022-11-25T14:33:54.075Z,100928.40
2022-11-25T14:36:31.527Z,100929.84
2022-11-25T14:39:07.238Z,100933.63
2022-11-25T14:41:43.512Z,100926.97
2022-11-25T14:44:25.253Z,100932.51
2022-11-25T14:47:00.126Z,100931.37
2022-11-25T14:50:00.123Z,100936.73
2022-11-25T14:52:45.030Z,100937.70
2022-11-25T14:55:31.929Z,100936.95
2022-11-25T14:58:04.163Z,100939.14
2022-11-25T15:00:36.142Z,100939.86
2022-11-25T15:03:08.831Z,100941.46
2022-11-25T15:05:42.186Z,100939.81
2022-11-25T15:08:18.339Z,100928.39
2022-11-25T15:10:55.820Z,100945.62
2022-11-25T15:13:34.691Z,100945.60
2022-11-25T15:16:14.953Z,100946.51
2022-11-25T15:18:54.250Z,100951.85
2022-11-25T15:21:31.472Z,100951.80
2022-11-25T15:24:07.357Z,100951.84
2022-11-25T15:26:39.238Z,100928.35
2022-11-25T15:40:59.406Z,100955.52
2022-11-25T15:43:33.856Z,100960.53
2022-11-25T15:46:09.068Z,100962.04
2022-11-25T15:48:46.512Z,100961.27
2022-11-25T15:51:37.092Z,100961.69
2022-11-25T15:54:21.772Z,100966.66
2022-11-25T15:56:57.432Z,100953.85
2022-11-25T15:59:51.507Z,100972.76
2022-11-25T16:02:51.061Z,100977.12
2022-11-25T16:05:52.972Z,100975.27
2022-11-25T16:08:35.137Z,100972.90
2022-11-25T16:11:19.604Z,100971.12
2022-11-25T16:13:54.366Z,100958.52
2022-11-25T16:16:30.630Z,100976.52
2022-11-25T16:19:24.854Z,100975.98
2022-11-25T16:22:02.937Z,100979.13
2022-11-25T16:24:39.725Z,100980.52
2022-11-25T16:27:24.601Z,100981.76
2022-11-25T16:30:13.903Z,100981.60
2022-11-25T16:32:46.907Z,100983.52
2022-11-25T16:35:22.804Z,100985.03
2022-11-25T16:37:59.979Z,100986.66
2022-11-25T16:40:37.964Z,100982.61
2022-11-25T16:43:19.646Z,100982.96
2022-11-25T16:45:56.204Z,100980.65
2022-11-25T16:48:28.943Z,100977.54
2022-11-25T16:51:01.753Z,100979.60
2022-11-25T16:53:34.741Z,100980.34
2022-11-25T16:56:10.915Z,100982.88
2022-11-25T16:58:45.287Z,100971.85
2022-11-25T17:01:27.200Z,100974.14
2022-11-25T17:03:59.596Z,100986.81
2022-11-25T17:06:32.793Z,100989.75
2022-11-25T17:09:04.822Z,100987.73
2022-11-25T17:11:46.450Z,100983.02
2022-11-25T17:14:29.032Z,100984.70
2022-11-25T17:17:06.316Z,100983.09
2022-11-25T17:19:41.241Z,100991.98
2022-11-25T17:22:21.610Z,100992.73
2022-11-25T17:24:54.088Z,100988.29
2022-11-25T17:27:32.413Z,100996.45
2022-11-25T17:30:07.826Z,101004.77
2022-11-25T17:32:39.774Z,100983.86
2022-11-25T17:35:21.136Z,100996.69
2022-11-25T17:37:53.080Z,100991.40
2022-11-25T17:40:25.621Z,101001.14
2022-11-25T17:42:58.076Z,101001.18
2022-11-25T17:45:30.019Z,100996.83
2022-11-25T17:48:03.299Z,100982.06
2022-11-25T17:50:36.243Z,101011.04
2022-11-25T17:53:11.857Z,101009.70
2022-11-25T17:55:44.274Z,101006.04
2022-11-25T17:58:19.395Z,101009.16
2022-11-25T18:00:53.370Z,101006.27
2022-11-25T18:03:27.608Z,101010.73
2022-11-25T18:05:59.632Z,101011.64
2022-11-25T18:08:31.797Z,101015.52
2022-11-25T18:11:07.609Z,101024.48
2022-11-25T18:13:43.092Z,101019.21
2022-11-25T18:16:24.094Z,101022.40
2022-11-25T18:18:56.407Z,101025.20
2022-11-25T18:21:30.080Z,101025.14
2022-11-25T18:24:03.802Z,101025.54
2022-11-25T18:26:41.894Z,101032.20
2022-11-25T18:29:23.043Z,101028.24
2022-11-25T18:31:56.888Z,101029.06
2022-11-25T18:34:29.528Z,101021.30
2022-11-25T18:37:03.662Z,101022.31
2022-11-25T18:39:35.498Z,101020.59
2022-11-25T18:42:09.667Z,101019.02
2022-11-25T18:44:44.761Z,101011.42
2022-11-25T18:47:16.696Z,101023.87
2022-11-25T18:49:53.842Z,101038.59
2022-11-25T18:52:31.397Z,101040.55
2022-11-25T18:55:06.739Z,101051.35
2022-11-25T18:57:39.118Z,101055.05
2022-11-25T19:00:33.808Z,101051.70
2022-11-25T19:03:15.407Z,101047.27
2022-11-25T19:05:48.632Z,101058.66
2022-11-25T19:08:20.522Z,101054.80
2022-11-25T19:10:53.698Z,101048.29
2022-11-25T19:13:32.866Z,101061.63
2022-11-25T19:16:09.529Z,101054.41
2022-11-25T19:18:44.981Z,101065.88
2022-11-25T19:21:21.343Z,101062.59
2022-11-25T19:23:54.063Z,101069.68
2022-11-25T19:26:32.040Z,101073.13
2022-11-25T19:29:09.074Z,101068.55
2022-11-25T19:31:41.999Z,101069.98
2022-11-25T19:34:25.507Z,101076.70
2022-11-25T19:36:57.444Z,101073.69
2022-11-25T19:39:31.694Z,101077.92
2022-11-25T19:42:04.152Z,101078.90
2022-11-25T19:44:37.286Z,101083.15
2022-11-25T19:47:34.654Z,101085.72
2022-11-25T19:50:14.315Z,101076.45
2022-11-25T19:52:46.194Z,101076.20
2022-11-25T19:55:23.385Z,101093.81
2022-11-25T19:57:57.968Z,101094.63
2022-11-25T20:00:29.949Z,101094.39
2022-11-25T20:03:02.278Z,101097.27
2022-11-25T20:05:38.385Z,101100.21
2022-11-25T20:08:19.536Z,101100.19
2022-11-25T20:10:51.357Z,101106.36
2022-11-25T20:13:26.887Z,101110.34
2022-11-25T20:16:01.139Z,101115.83
2022-11-25T20:18:33.490Z,101118.98
2022-11-25T20:21:07.283Z,101122.08
2022-11-25T20:23:44.456Z,101118.10
2022-11-25T20:26:23.906Z,101121.94
2022-11-25T20:28:57.131Z,101125.15
2022-11-25T20:31:30.684Z,101123.98
2022-11-25T20:34:05.598Z,101126.04
2022-11-25T20:36:37.727Z,101127.63
2022-11-25T20:39:16.912Z,101130.36
2022-11-25T20:41:53.946Z,101133.29
2022-11-25T20:44:29.140Z,101134.19
2022-11-25T20:47:01.529Z,101133.98
2022-11-25T20:49:34.236Z,101134.42
2022-11-25T20:52:07.636Z,101137.77
2022-11-25T20:54:39.845Z,101138.36
2022-11-25T20:57:13.297Z,101139.34
2022-11-25T20:59:45.996Z,101142.86
2022-11-25T21:02:21.704Z,101144.08
2022-11-25T21:04:55.820Z,101144.48
2022-11-25T21:07:27.918Z,101142.78
2022-11-25T21:10:01.777Z,101142.42
2022-11-25T21:12:33.709Z,101143.47
2022-11-25T21:15:13.179Z,101143.04
2022-11-25T21:17:44.996Z,101140.35
2022-11-25T21:20:20.398Z,101138.27
2022-11-25T21:22:56.789Z,101134.76
2022-11-25T21:25:31.607Z,101136.42
2022-11-25T21:28:03.971Z,101145.28
2022-11-25T21:30:37.757Z,101143.46
2022-11-25T21:33:14.145Z,101144.77
2022-11-25T21:35:51.350Z,101142.73
2022-11-25T21:38:25.413Z,101149.20
2022-11-25T21:41:00.114Z,101151.58
2022-11-25T21:43:35.191Z,101151.07
2022-11-25T21:46:13.807Z,101154.42
2022-11-25T21:48:48.689Z,101156.53
2022-11-25T21:51:25.117Z,101161.34
2022-11-25T21:53:57.173Z,101160.38
2022-11-25T21:56:32.198Z,101166.20
2022-11-25T21:59:09.592Z,101170.52
2022-11-25T22:01:43.884Z,101174.88
2022-11-25T22:04:20.244Z,101174.63
2022-11-25T22:06:52.971Z,101173.12
2022-11-25T22:09:28.046Z,101175.27
2022-11-25T22:12:00.157Z,101171.56
2022-11-25T22:14:39.437Z,101172.34
2022-11-25T22:17:22.425Z,101154.32
2022-11-25T22:19:55.274Z,101181.61
2022-11-25T22:22:29.078Z,101186.75
2022-11-25T22:25:00.787Z,101188.38
2022-11-25T22:27:37.050Z,101193.15
2022-11-25T22:30:19.672Z,101175.61
2022-11-25T22:33:01.986Z,101197.48
2022-11-25T22:35:33.756Z,101187.85
2022-11-25T22:38:14.088Z,101193.02
2022-11-25T22:40:48.939Z,101198.07
2022-11-25T22:43:27.731Z,101197.77
2022-11-25T22:46:00.181Z,101201.45
2022-11-25T22:48:36.349Z,101201.09
2022-11-25T22:51:15.443Z,101199.70
2022-11-25T22:53:48.810Z,101202.06
2022-11-25T22:56:21.898Z,101201.15
2022-11-25T22:58:59.572Z,101202.35
2022-11-25T23:01:31.942Z,101201.13
2022-11-25T23:04:06.071Z,101203.37
2022-11-25T23:06:39.169Z,101210.59
2022-11-25T23:09:17.862Z,101215.27
2022-11-25T23:11:50.970Z,101209.16
2022-11-25T23:14:22.814Z,101211.39
2022-11-25T23:16:57.066Z,101208.35
2022-11-25T23:19:34.718Z,101207.08
2022-11-25T23:22:14.128Z,101202.81
2022-11-25T23:24:50.310Z,101210.71
2022-11-25T23:27:25.441Z,101212.51
2022-11-25T23:29:59.325Z,101202.25
2022-11-25T23:32:31.698Z,101212.17
2022-11-25T23:35:10.731Z,101216.98
2022-11-25T23:37:50.441Z,101218.36
2022-11-25T23:40:26.225Z,101223.11
2022-11-25T23:42:59.015Z,101225.33
2022-11-25T23:45:33.619Z,101230.23
2022-11-25T23:48:07.784Z,101234.98
2022-11-25T23:50:40.487Z,101237.24
2022-11-25T23:53:29.621Z,101233.15
2022-11-25T23:56:02.565Z,101232.05
2022-11-25T23:58:35.831Z,101235.95
